createdAt,value
2022-08-02T00:01:00.074Z,21.59
2022-08-02T00:03:27.981Z,21.82
2022-08-02T00:05:56.068Z,21.76
2022-08-02T00:08:24.035Z,21.80
2022-08-02T00:10:51.871Z,21.78
2022-08-02T00:13:19.937Z,21.76
2022-08-02T00:15:49.117Z,21.75
2022-08-02T00:18:17.068Z,21.68
2022-08-02T00:20:44.909Z,21.73
2022-08-02T00:23:13.952Z,21.71
2022-08-02T00:25:54.354Z,21.70
2022-08-02T00:28:27.172Z,21.68
2022-08-02T00:30:57.233Z,21.64
2022-08-02T00:34:26.779Z,21.64
2022-08-02T00:36:13.140Z,21.62
2022-08-02T00:38:40.965Z,21.62
2022-08-02T00:41:13.305Z,21.55
2022-08-02T00:43:41.450Z,21.56
2022-08-02T00:46:10.870Z,21.58
2022-08-02T00:48:43.016Z,21.57
2022-08-02T00:51:11.341Z,21.55
2022-08-02T00:53:39.242Z,21.56
2022-08-02T00:56:07.248Z,21.54
2022-08-02T00:58:35.174Z,21.54
2022-08-02T01:01:03.591Z,21.51
2022-08-02T01:03:32.983Z,21.49
2022-08-02T01:06:16.181Z,21.38
2022-08-02T01:08:44.486Z,21.45
2022-08-02T01:11:12.527Z,21.43
2022-08-02T01:13:40.358Z,21.41
2022-08-02T01:16:14.916Z,21.39
2022-08-02T01:18:46.828Z,21.35
2022-08-02T01:21:34.605Z,21.43
2022-08-02T01:24:17.203Z,21.38
2022-08-02T01:26:47.961Z,21.33
2022-08-02T01:29:20.018Z,21.33
2022-08-02T01:31:50.452Z,21.27
2022-08-02T01:34:20.154Z,21.26
2022-08-02T01:36:51.118Z,21.26
2022-08-02T01:39:26.500Z,21.10
2022-08-02T01:42:00.085Z,21.27
2022-08-02T01:44:30.116Z,21.26
2022-08-02T01:46:59.163Z,21.19
2022-08-02T01:49:27.329Z,21.21
2022-08-02T01:52:14.143Z,21.26
2022-08-02T01:54:42.106Z,21.18
2022-08-02T01:57:11.468Z,21.21
2022-08-02T01:59:40.782Z,21.20
2022-08-02T02:02:09.443Z,21.18
2022-08-02T02:04:38.025Z,21.07
2022-08-02T02:07:05.986Z,21.17
2022-08-02T02:09:35.474Z,21.16
2022-08-02T02:12:17.588Z,21.17
2022-08-02T02:15:07.307Z,21.19
2022-08-02T02:18:10.497Z,21.14
2022-08-02T02:20:22.938Z,21.12
2022-08-02T02:22:53.407Z,20.80
2022-08-02T02:25:26.873Z,21.08
2022-08-02T02:28:06.059Z,21.05
2022-08-02T02:30:35.327Z,21.06
2022-08-02T02:33:03.716Z,21.00
2022-08-02T02:35:33.224Z,21.01
2022-08-02T02:38:02.386Z,20.67
2022-08-02T02:40:30.347Z,20.94
2022-08-02T02:42:58.338Z,20.95
2022-08-02T02:45:26.344Z,20.91
2022-08-02T02:47:55.570Z,20.88
2022-08-02T02:50:24.241Z,20.86
2022-08-02T02:52:52.098Z,20.83
2022-08-02T02:55:19.986Z,20.73
2022-08-02T02:57:47.807Z,20.80
2022-08-02T03:00:16.372Z,20.74
2022-08-02T03:02:45.027Z,20.76
2022-08-02T03:05:14.416Z,20.70
2022-08-02T03:07:42.243Z,20.54
2022-08-02T03:10:11.611Z,20.65
2022-08-02T03:12:43.719Z,20.65
2022-08-02T03:15:13.377Z,20.63
2022-08-02T03:17:42.053Z,20.56
2022-08-02T03:20:12.053Z,20.58
2022-08-02T03:22:41.438Z,20.47
2022-08-02T03:25:10.263Z,20.54
2022-08-02T03:27:38.068Z,20.53
2022-08-02T03:30:07.049Z,20.40
2022-08-02T03:32:35.070Z,20.48
2022-08-02T03:35:03.560Z,19.23
2022-08-02T03:37:31.892Z,19.15
2022-08-02T03:40:01.192Z,20.06
2022-08-02T03:42:29.924Z,20.39
2022-08-02T03:44:58.147Z,19.68
2022-08-02T03:47:26.143Z,20.37
2022-08-02T03:49:54.215Z,20.34
2022-08-02T03:52:22.577Z,19.50
2022-08-02T03:54:50.686Z,18.45
2022-08-02T03:57:20.374Z,18.18
2022-08-02T03:59:48.581Z,18.86
2022-08-02T04:02:16.803Z,19.37
2022-08-02T04:04:44.838Z,18.33
2022-08-02T04:07:12.962Z,18.06
2022-08-02T04:09:40.956Z,20.26
2022-08-02T04:12:09.418Z,20.25
2022-08-02T04:14:38.908Z,19.46
2022-08-02T04:17:08.651Z,19.20
2022-08-02T04:19:39.742Z,19.84
2022-08-02T04:22:08.983Z,20.27
2022-08-02T04:24:39.397Z,19.61
2022-08-02T04:27:49.025Z,19.67
2022-08-02T04:29:56.680Z,20.26
2022-08-02T04:32:24.610Z,20.33
2022-08-02T04:35:18.287Z,18.76
2022-08-02T04:38:08.620Z,19.13
2022-08-02T04:40:28.436Z,18.48
2022-08-02T04:42:56.392Z,19.91
2022-08-02T04:45:25.966Z,19.88
2022-08-02T04:48:01.995Z,19.61
2022-08-02T04:50:32.256Z,20.16
2022-08-02T04:53:00.358Z,19.11
2022-08-02T04:55:31.013Z,18.67
2022-08-02T04:57:59.256Z,18.81
2022-08-02T05:00:29.321Z,19.85
2022-08-02T05:02:57.367Z,19.68
2022-08-02T05:05:25.649Z,19.29
2022-08-02T05:07:53.719Z,20.64
2022-08-02T05:10:22.521Z,19.95
2022-08-02T05:12:53.152Z,19.05
2022-08-02T05:15:21.415Z,18.47
2022-08-02T05:17:56.399Z,20.07
2022-08-02T05:20:24.797Z,19.14
2022-08-02T05:22:58.281Z,20.89
2022-08-02T05:25:28.620Z,20.27
2022-08-02T05:27:56.756Z,19.35
2022-08-02T05:30:25.184Z,20.56
2022-08-02T05:32:54.808Z,18.76
2022-08-02T05:35:24.323Z,20.26
2022-08-02T05:37:52.650Z,19.53
2022-08-02T05:40:25.338Z,20.60
2022-08-02T05:42:54.387Z,20.99
2022-08-02T05:45:22.490Z,20.07
2022-08-02T05:47:50.857Z,19.43
2022-08-02T05:50:20.969Z,20.44
2022-08-02T05:52:52.670Z,21.30
2022-08-02T05:55:35.090Z,21.92
2022-08-02T05:58:04.688Z,22.15
2022-08-02T06:00:33.636Z,23.05
2022-08-02T06:03:19.561Z,22.83
2022-08-02T06:05:52.503Z,23.14
2022-08-02T06:08:23.614Z,22.53
2022-08-02T06:10:52.980Z,23.82
2022-08-02T06:13:46.721Z,22.08
2022-08-02T06:16:14.985Z,25.44
2022-08-02T06:18:46.447Z,24.11
2022-08-02T06:22:34.891Z,24.07
2022-08-02T06:24:06.676Z,26.67
2022-08-02T06:26:34.981Z,27.05
2022-08-02T06:29:03.239Z,25.75
2022-08-02T06:31:31.463Z,26.06
2022-08-02T06:34:02.433Z,26.42
2022-08-02T06:36:35.638Z,27.05
2022-08-02T06:40:02.401Z,26.43
2022-08-02T06:42:34.056Z,27.80
2022-08-02T06:45:02.056Z,29.60
2022-08-02T06:47:30.257Z,29.32
2022-08-02T06:49:58.538Z,30.48
2022-08-02T06:52:30.044Z,29.83
2022-08-02T06:54:59.659Z,31.07
2022-08-02T06:57:30.747Z,29.62
2022-08-02T07:00:03.369Z,30.70
2022-08-02T07:02:53.549Z,31.22
2022-08-02T07:05:28.729Z,31.21
2022-08-02T07:07:58.273Z,31.19
2022-08-02T07:10:27.854Z,32.26
2022-08-02T07:12:59.913Z,31.58
2022-08-02T07:15:31.565Z,32.78
2022-08-02T07:18:04.980Z,32.32
2022-08-02T07:20:33.242Z,32.89
2022-08-02T07:23:06.601Z,32.43
2022-08-02T07:26:01.770Z,33.33
2022-08-02T07:28:29.438Z,33.46
2022-08-02T07:31:00.379Z,31.97
2022-08-02T07:33:38.220Z,34.79
2022-08-02T07:36:16.714Z,34.32
2022-08-02T07:38:53.931Z,35.22
2022-08-02T07:41:28.088Z,32.91
2022-08-02T07:43:58.712Z,35.09
2022-08-02T07:46:28.881Z,35.01
2022-08-02T07:49:01.241Z,35.16
2022-08-02T07:51:35.980Z,37.16
2022-08-02T07:54:05.731Z,36.90
2022-08-02T07:56:44.797Z,37.95
2022-08-02T07:59:16.961Z,37.76
2022-08-02T08:01:59.253Z,38.45
2022-08-02T08:04:39.099Z,37.46
2022-08-02T08:07:13.577Z,38.29
2022-08-02T08:09:47.679Z,37.00
2022-08-02T08:12:16.766Z,37.59
2022-08-02T08:14:45.187Z,38.18
2022-08-02T08:17:23.040Z,39.47
2022-08-02T08:20:12.803Z,38.02
2022-08-02T08:22:44.135Z,37.93
2022-08-02T08:25:20.861Z,36.80
2022-08-02T08:27:51.425Z,37.50
2022-08-02T08:30:19.503Z,39.24
2022-08-02T08:32:47.584Z,39.15
2022-08-02T08:35:15.513Z,37.88
2022-08-02T08:37:44.436Z,39.72
2022-08-02T08:40:19.603Z,39.26
2022-08-02T08:43:08.876Z,39.75
2022-08-02T08:45:37.073Z,37.69
2022-08-02T08:48:30.569Z,38.12
2022-08-02T08:51:03.107Z,40.22
2022-08-02T08:53:36.907Z,39.33
2022-08-02T08:56:15.696Z,40.08
2022-08-02T08:58:47.605Z,40.17
2022-08-02T09:01:16.978Z,39.52
2022-08-02T09:03:50.679Z,41.70
2022-08-02T09:06:35.710Z,40.29
2022-08-02T09:09:25.646Z,41.80
2022-08-02T09:11:59.177Z,42.00
2022-08-02T09:14:33.087Z,42.61
2022-08-02T09:17:40.523Z,43.30
2022-08-02T09:20:14.012Z,43.42
2022-08-02T09:22:48.420Z,43.01
2022-08-02T09:25:21.761Z,44.10
2022-08-02T09:27:53.659Z,44.02
2022-08-02T09:30:24.388Z,43.33
2022-08-02T09:33:00.333Z,44.66
2022-08-02T09:36:07.089Z,44.90
2022-08-02T09:38:23.592Z,45.01
2022-08-02T09:41:15.908Z,45.53
2022-08-02T09:44:03.365Z,45.67
2022-08-02T09:46:38.251Z,44.60
2022-08-02T09:49:10.345Z,46.53
2022-08-02T09:51:50.247Z,46.51
2022-08-02T09:54:19.125Z,46.73
2022-08-02T09:56:49.103Z,45.46
2022-08-02T09:59:22.928Z,43.47
2022-08-02T10:02:01.495Z,43.66
2022-08-02T10:04:31.445Z,44.74
2022-08-02T10:07:03.911Z,45.48
2022-08-02T10:09:32.488Z,46.10
2022-08-02T10:12:00.694Z,45.88
2022-08-02T10:14:29.994Z,45.19
2022-08-02T10:16:58.321Z,46.25
2022-08-02T10:20:03.329Z,47.22
2022-08-02T10:22:16.093Z,46.71
2022-08-02T10:24:48.434Z,44.18
2022-08-02T10:27:21.199Z,45.10
2022-08-02T10:29:54.911Z,45.02
2022-08-02T10:32:27.570Z,43.06
2022-08-02T10:34:57.565Z,42.67
2022-08-02T10:37:31.879Z,41.39
2022-08-02T10:40:00.400Z,43.29
2022-08-02T10:42:48.122Z,42.34
2022-08-02T10:45:19.948Z,44.70
2022-08-02T10:48:04.701Z,45.04
2022-08-02T10:50:54.882Z,47.13
2022-08-02T10:53:27.083Z,48.10
2022-08-02T10:55:56.068Z,48.13
2022-08-02T10:58:29.441Z,48.01
2022-08-02T11:01:00.347Z,44.99
2022-08-02T11:03:39.706Z,45.47
2022-08-02T11:06:09.033Z,46.36
2022-08-02T11:09:31.478Z,48.27
2022-08-02T11:12:04.893Z,48.73
2022-08-02T11:14:33.916Z,48.26
2022-08-02T11:17:18.062Z,47.06
2022-08-02T11:20:21.053Z,48.97
2022-08-02T11:22:49.920Z,48.70
2022-08-02T11:26:02.750Z,48.67
2022-08-02T11:28:25.840Z,48.98
2022-08-02T11:31:01.245Z,49.32
2022-08-02T11:33:36.158Z,49.22
2022-08-02T11:36:05.970Z,49.05
2022-08-02T11:38:34.068Z,48.97
2022-08-02T11:41:06.103Z,47.46
2022-08-02T11:43:38.159Z,45.55
2022-08-02T11:46:06.714Z,44.82
2022-08-02T11:48:37.931Z,44.37
2022-08-02T11:51:07.303Z,43.49
2022-08-02T11:53:46.027Z,42.59
2022-08-02T11:56:14.284Z,41.50
2022-08-02T11:59:03.273Z,41.92
2022-08-02T12:01:32.427Z,40.31
2022-08-02T12:04:18.187Z,40.34
2022-08-02T12:06:46.457Z,39.65
2022-08-02T12:09:18.932Z,39.75
2022-08-02T12:11:50.070Z,40.69
2022-08-02T12:14:18.378Z,39.25
2022-08-02T12:17:03.566Z,39.68
2022-08-02T12:19:33.202Z,39.22
2022-08-02T12:22:16.679Z,36.77
2022-08-02T12:24:49.098Z,37.81
2022-08-02T12:27:33.259Z,39.85
2022-08-02T12:30:06.858Z,39.49
2022-08-02T12:32:35.089Z,39.84
2022-08-02T12:35:07.073Z,38.49
2022-08-02T12:37:35.156Z,39.59
2022-08-02T12:40:18.835Z,38.60
2022-08-02T12:42:55.636Z,39.58
2022-08-02T12:45:36.499Z,38.14
2022-08-02T12:48:07.706Z,37.90
2022-08-02T12:50:38.196Z,38.98
2022-08-02T12:53:17.584Z,39.23
2022-08-02T12:56:00.678Z,38.55
2022-08-02T12:58:31.770Z,39.41
2022-08-02T13:01:00.548Z,38.73
2022-08-02T13:04:12.214Z,37.63
2022-08-02T13:09:14.023Z,36.29
2022-08-02T13:11:43.528Z,37.87
2022-08-02T13:14:12.185Z,37.67
2022-08-02T13:16:40.697Z,37.64
2022-08-02T13:19:08.857Z,36.86
2022-08-02T13:21:41.791Z,36.62
2022-08-02T13:24:38.742Z,37.76
2022-08-02T13:27:09.977Z,36.50
2022-08-02T13:29:38.344Z,38.41
2022-08-02T13:32:06.753Z,37.53
2022-08-02T13:34:34.830Z,37.45
2022-08-02T13:37:04.549Z,36.94
2022-08-02T13:39:32.748Z,36.09
2022-08-02T13:42:00.896Z,38.38
2022-08-02T13:44:29.000Z,37.61
2022-08-02T13:46:57.131Z,36.90
2022-08-02T13:49:50.643Z,36.93
2022-08-02T13:52:15.508Z,35.42
2022-08-02T13:54:44.031Z,36.23
2022-08-02T13:57:12.139Z,37.87
2022-08-02T13:59:57.137Z,37.64
2022-08-02T14:02:28.661Z,37.76
2022-08-02T14:04:57.098Z,37.00
2022-08-02T14:07:26.695Z,36.57
2022-08-02T14:09:54.991Z,34.80
2022-08-02T14:12:23.132Z,34.90
2022-08-02T14:14:51.767Z,36.59
2022-08-02T14:17:20.130Z,35.54
2022-08-02T14:19:48.527Z,36.69
2022-08-02T14:22:16.738Z,36.17
2022-08-02T14:24:46.325Z,36.11
2022-08-02T14:27:15.772Z,36.24
2022-08-02T14:29:44.020Z,36.78
2022-08-02T14:32:12.366Z,34.23
2022-08-02T14:34:40.868Z,34.30
2022-08-02T14:37:09.046Z,36.62
2022-08-02T14:39:43.386Z,35.91
2022-08-02T14:42:26.671Z,34.71
2022-08-02T14:44:54.998Z,33.89
2022-08-02T14:47:23.264Z,35.31
2022-08-02T14:49:51.810Z,34.98
2022-08-02T14:52:20.222Z,36.38
2022-08-02T14:54:48.694Z,33.83
2022-08-02T14:57:16.849Z,35.13
2022-08-02T14:59:47.510Z,35.25
2022-08-02T15:02:16.321Z,35.67
2022-08-02T15:04:44.568Z,35.77
2022-08-02T15:07:14.066Z,35.55
2022-08-02T15:09:43.199Z,35.10
2022-08-02T15:12:11.766Z,34.01
2022-08-02T15:14:40.182Z,35.29
2022-08-02T15:17:09.492Z,35.62
2022-08-02T15:19:56.621Z,35.63
2022-08-02T15:22:25.433Z,34.83
2022-08-02T15:24:54.252Z,35.00
2022-08-02T15:27:22.142Z,34.64
2022-08-02T15:29:50.070Z,35.61
2022-08-02T15:32:19.844Z,35.34
2022-08-02T15:34:48.714Z,35.52
2022-08-02T15:37:17.004Z,34.16
2022-08-02T15:39:47.434Z,34.78
2022-08-02T15:42:18.540Z,34.54
2022-08-02T15:44:46.462Z,34.62
2022-08-02T15:47:14.415Z,35.36
2022-08-02T15:49:43.924Z,34.46
2022-08-02T15:52:12.351Z,34.23
2022-08-02T15:54:40.573Z,33.88
2022-08-02T15:57:10.690Z,34.44
2022-08-02T15:59:38.694Z,34.03
2022-08-02T16:02:07.071Z,34.73
2022-08-02T16:04:35.373Z,35.23
2022-08-02T16:07:04.988Z,34.59
2022-08-02T16:09:32.965Z,33.52
2022-08-02T16:12:01.025Z,33.81
2022-08-02T16:14:29.639Z,34.11
2022-08-02T16:16:57.634Z,35.03
2022-08-02T16:19:46.311Z,33.48
2022-08-02T16:22:15.229Z,34.02
2022-08-02T16:24:43.678Z,34.37
2022-08-02T16:27:11.869Z,33.96
2022-08-02T16:29:40.067Z,34.22
2022-08-02T16:32:18.678Z,33.00
2022-08-02T16:35:08.547Z,34.61
2022-08-02T16:37:51.717Z,34.60
2022-08-02T16:40:20.762Z,34.62
2022-08-02T16:42:50.888Z,34.58
2022-08-02T16:45:20.189Z,34.53
2022-08-02T16:47:56.191Z,34.48
2022-08-02T16:50:27.154Z,34.43
2022-08-02T16:52:58.812Z,34.34
2022-08-02T16:55:29.288Z,34.31
2022-08-02T16:57:59.042Z,34.27
2022-08-02T17:00:26.948Z,34.26
2022-08-02T17:02:54.831Z,34.23
2022-08-02T17:05:37.673Z,34.18
2022-08-02T17:08:18.061Z,34.20
2022-08-02T17:10:46.163Z,34.21
2022-08-02T17:13:14.003Z,34.23
2022-08-02T17:16:08.100Z,33.92
2022-08-02T17:18:30.154Z,34.19
2022-08-02T17:20:58.117Z,34.16
2022-08-02T17:24:06.240Z,33.94
2022-08-02T17:26:15.444Z,34.01
2022-08-02T17:29:14.144Z,33.93
2022-08-02T17:31:42.952Z,33.85
2022-08-02T17:34:12.411Z,33.77
2022-08-02T17:36:40.259Z,33.77
2022-08-02T17:39:09.663Z,33.73
2022-08-02T17:41:49.182Z,33.70
2022-08-02T17:44:36.658Z,33.68
2022-08-02T17:47:06.526Z,33.55
2022-08-02T17:49:38.279Z,33.58
2022-08-02T17:52:47.988Z,33.56
2022-08-02T17:55:03.420Z,33.48
2022-08-02T17:57:57.669Z,33.15
2022-08-02T18:00:20.081Z,33.39
2022-08-02T18:02:52.640Z,33.36
2022-08-02T18:05:23.170Z,33.33
2022-08-02T18:07:55.495Z,33.30
2022-08-02T18:10:30.307Z,32.99
2022-08-02T18:12:59.701Z,33.19
2022-08-02T18:15:28.854Z,33.13
2022-08-02T18:18:00.287Z,33.08
2022-08-02T18:20:28.229Z,33.01
2022-08-02T18:22:58.775Z,32.92
2022-08-02T18:25:36.417Z,32.92
2022-08-02T18:28:13.338Z,32.86
2022-08-02T18:30:41.270Z,32.80
2022-08-02T18:33:57.832Z,32.74
2022-08-02T18:35:56.960Z,32.67
2022-08-02T18:38:26.883Z,32.60
2022-08-02T18:40:55.781Z,32.51
2022-08-02T18:43:29.449Z,32.46
2022-08-02T18:46:05.952Z,32.43
2022-08-02T18:48:47.725Z,32.34
2022-08-02T18:51:16.218Z,32.28
2022-08-02T18:53:48.912Z,32.12
2022-08-02T18:56:20.283Z,32.18
2022-08-02T18:58:54.608Z,32.09
2022-08-02T19:01:31.769Z,32.06
2022-08-02T19:04:11.322Z,31.99
2022-08-02T19:06:39.412Z,31.93
2022-08-02T19:09:13.082Z,31.88
2022-08-02T19:11:47.363Z,31.80
2022-08-02T19:14:23.933Z,31.68
2022-08-02T19:16:56.708Z,31.67
2022-08-02T19:19:28.781Z,31.42
2022-08-02T19:22:26.443Z,31.52
2022-08-02T19:24:45.769Z,31.42
2022-08-02T19:27:14.674Z,31.15
2022-08-02T19:30:04.096Z,31.19
2022-08-02T19:32:41.366Z,31.09
2022-08-02T19:35:29.672Z,30.99
2022-08-02T19:38:07.290Z,30.86
2022-08-02T19:40:35.249Z,30.81
2022-08-02T19:44:24.048Z,30.72
2022-08-02T19:45:53.329Z,30.62
2022-08-02T19:48:26.839Z,30.55
2022-08-02T19:51:00.965Z,30.45
2022-08-02T19:53:48.432Z,30.38
2022-08-02T19:56:25.111Z,30.26
2022-08-02T19:58:54.836Z,30.20
2022-08-02T20:01:37.006Z,30.09
2022-08-02T20:04:06.763Z,30.00
2022-08-02T20:06:34.647Z,29.90
2022-08-02T20:09:03.455Z,29.86
2022-08-02T20:11:34.641Z,29.78
2022-08-02T20:14:04.091Z,29.71
2022-08-02T20:16:33.430Z,29.63
2022-08-02T20:19:02.257Z,29.53
2022-08-02T20:21:36.398Z,29.48
2022-08-02T20:24:07.109Z,29.39
2022-08-02T20:26:35.704Z,29.31
2022-08-02T20:29:05.985Z,29.24
2022-08-02T20:31:37.399Z,29.16
2022-08-02T20:34:05.605Z,29.11
2022-08-02T20:36:35.134Z,29.09
2022-08-02T20:39:02.998Z,29.02
2022-08-02T20:41:37.307Z,29.00
2022-08-02T20:44:15.766Z,28.87
2022-08-02T20:46:59.454Z,28.86
2022-08-02T20:49:40.542Z,28.79
2022-08-02T20:52:23.404Z,28.74
2022-08-02T20:54:52.563Z,28.64
2022-08-02T20:57:20.434Z,28.53
2022-08-02T21:00:09.111Z,28.47
2022-08-02T21:02:38.399Z,28.46
2022-08-02T21:05:17.543Z,28.30
2022-08-02T21:07:47.889Z,28.32
2022-08-02T21:10:21.481Z,28.27
2022-08-02T21:12:52.077Z,28.21
2022-08-02T21:15:19.905Z,28.15
2022-08-02T21:17:51.524Z,28.10
2022-08-02T21:20:27.515Z,28.04
2022-08-02T21:22:58.025Z,27.79
2022-08-02T21:25:42.798Z,27.91
2022-08-02T21:28:17.499Z,27.82
2022-08-02T21:30:46.052Z,27.76
2022-08-02T21:33:18.121Z,27.72
2022-08-02T21:35:52.256Z,27.71
2022-08-02T21:38:35.566Z,27.66
2022-08-02T21:41:06.312Z,27.62
2022-08-02T21:43:40.491Z,27.56
2022-08-02T21:46:14.789Z,26.91
2022-08-02T21:48:44.562Z,27.20
2022-08-02T21:51:15.860Z,27.04
2022-08-02T21:54:18.056Z,26.91
2022-08-02T21:56:33.309Z,26.07
2022-08-02T21:59:15.867Z,27.33
2022-08-02T22:01:52.273Z,27.27
2022-08-02T22:04:23.169Z,26.00
2022-08-02T22:06:51.955Z,27.07
2022-08-02T22:09:43.146Z,25.00
2022-08-02T22:12:10.186Z,26.75
2022-08-02T22:14:41.088Z,26.46
2022-08-02T22:17:13.634Z,25.29
2022-08-02T22:19:53.734Z,24.95
2022-08-02T22:22:28.281Z,26.25
2022-08-02T22:24:57.120Z,25.18
2022-08-02T22:28:35.977Z,25.95
2022-08-02T22:30:13.654Z,26.42
2022-08-02T22:33:00.259Z,26.22
2022-08-02T22:35:30.508Z,25.55
2022-08-02T22:38:17.586Z,26.12
2022-08-02T22:40:46.801Z,24.19
2022-08-02T22:46:02.790Z,26.20
2022-08-02T22:48:30.910Z,26.03
2022-08-02T22:51:01.816Z,25.01
2022-08-02T22:53:35.451Z,24.71
2022-08-02T22:56:03.988Z,26.50
2022-08-02T22:58:32.712Z,26.45
2022-08-02T23:01:00.892Z,25.96
2022-08-02T23:03:28.948Z,25.69
2022-08-02T23:05:56.906Z,23.85
2022-08-02T23:08:26.306Z,26.05
2022-08-02T23:10:54.156Z,25.86
2022-08-02T23:13:26.625Z,26.32
2022-08-02T23:16:13.887Z,24.59
2022-08-02T23:19:04.692Z,25.86
2022-08-02T23:22:00.950Z,26.02
2022-08-02T23:24:23.716Z,26.17
2022-08-02T23:26:51.675Z,26.01
2022-08-02T23:29:19.635Z,25.19
2022-08-02T23:31:47.629Z,26.04
2022-08-02T23:34:15.626Z,25.70
2022-08-02T23:36:43.652Z,25.22
2022-08-02T23:39:11.696Z,25.68
2022-08-02T23:41:41.072Z,25.98
2022-08-02T23:44:14.085Z,24.70
2022-08-02T23:46:43.241Z,25.02
2022-08-02T23:49:12.544Z,25.28
2022-08-02T23:51:40.493Z,25.22
2022-08-02T23:54:08.616Z,25.20
2022-08-02T23:56:37.588Z,25.49
2022-08-02T23:59:07.696Z,24.99
